Aeroporto :
LOGIN :

Iscrizione | Disclaimer

   EN    FR    IT 

 










Sommario :    VFR   VFR Marginale   IFR   IFR Intensivo   IFR Molto Intensivo
Visibilità : 
Base nubi : 
>= 8 km
>= 3000ft
5 / 8 km
1000 / 3000 ft
1500m / 5 km
500 / 1000 ft
800 / 1500m
200 / 500 ft
< 800m
< 200 ft
Simboli :   Temporali  Nebbia  Neve Forte  Precipitazioni Forti  Vento > 20 kt
SIGMETs :   Varie  Temporali  Ghiacco  Turbolenza  Onda orograficha  Ceneri Vulcaniche







- Altitudine del aeroporto : 3 ft
- Codice IATA : LWR


EHLW - Leuuwarden Air Base

ULTIMO METAR :
  • 261525Z AUTO 25011KT 9999 SCT280 15/09 Q1012 BLU

METARs OBSOLETI :
  • 261455Z AUTO 25014KT 220V280 9999 FEW024 BKN046 BKN051 15/09 Q1012 BLU
  • 261425Z AUTO 25012KT 230V290 9999 FEW023 SCT033 BKN037 14/08 Q1012 BLU
  • 261414Z AUTO 25010KT 200V300 9999 SCT023 BKN026 BKN031 14/09 Q1012 WHT
  • 261402Z AUTO 24009KT 200V280 9999 FEW026 SCT036 BKN053 14/08 Q1012 BLU
  • 261355Z AUTO 25009KT 200V280 9999 FEW024 SCT028 OVC150 15/08 Q1012 BLU 25009KT 9999 FEW020
  • 261344Z AUTO 24009KT 200V280 9999 // SCT024 BKN033 BKN042 15/09 Q1012 WHT 25009KT 9999 FEW020
  • 261325Z AUTO 25009KT 200V280 9999 FEW023 BKN026 BKN033 14/09 Q1012 BLU 25009KT 9999 FEW020
  • 261303Z AUTO 25009KT 210V280 9999 FEW024 OVC150 14/09 Q1012 BLU 25009KT 9999 FEW020
  • 261255Z AUTO 24009KT 190V280 9999 FEW023 SCT030 OVC140 14/09 Q1012 BLU 25009KT 9999 SCT018
  • 261235Z AUTO 25009KT 190V270 9999 FEW021 SCT025 OVC140 14/08 Q1012 BLU 25009KT 9999 SCT018

TAF TAF EHLW
Valido dal 26 a 13 ore il 27 a 01 ore UTC


261216Z 2613/2701 24009KT 9999 FEW018 SCT020
PROB30
TEMPO 2614/2615 24010G20KT SCT018CB SCT025
TEMPO 2615/2620 4000 SHRA SCT018CB BKN030
Nessun NOTAM noto per questo aeroporto.



MetMap, La meteo Aeronautica in un colpo d'occhio ! - Copyright ORBIFLY Dicembre 2007 - Disclaimer

ORBIFLY MET'MAP TEAM :

Programmazione e sviluppo : Alexandra Zaïnal
Concezione e sviluppo : Baudouin d'Aumeries
Co-Programmazione e sviluppo : Marc-Olivier Méhu
Supporto tecnico e logistico : Manuel Goepfert
Aiuto per la traduzione : Arnaldo La Scala

Contatto : metmap@orbifly.com




FONTI E CREDITI :

   NOAA